Diane H — WUR7250 — position and weather

sailwx.info

Track history (hours):
 
Tides and Currents Weather Stations Pressure Air Temp Water Temp Dewpoint Dewpoint Depression Visibility Wind Speed Wind Dir Waves Ship Positions

Diane H

Owner: BOYER TOWING INC, KETCHIKAN, AK. More information available from US FCC via Universal Licensing System and Coast Guard Vessel Documentation Center.

Last reported at 2016-Dec-10 00:19 UTC. Time now 2016-Dec-10 01:17 UTC.
Position N 47°39' W 122°17'.

Type: Towing. MMSI: 366673090.

Date/timePositionNaut miles runAvg speedWind from/ knotsBaromVisibWave heightAir tempDewpointWater temp
2016-Dec-10 00:19N 47°39' W 122°17'0 0.0
2016-Dec-09 23:31N 47°39' W 122°17'0 0.0
2016-Dec-09 22:16N 47°39' W 122°17'0 0.0
2016-Dec-09 20:31N 47°39' W 122°17'0 0.0
2016-Dec-09 18:28N 47°39' W 122°17'0 0.3
2016-Dec-09 17:33N 47°39' W 122°17'5 4.7
2016-Dec-09 16:32N 47°40' W 122°24'6 5.9
2016-Dec-09 15:33N 47°34' W 122°21'2 0.1
2016-Dec-08 00:33N 47°32' W 122°20'0 0.3
2016-Dec-07 23:32N 47°32' W 122°19'0 0.0
2016-Dec-07 22:32N 47°32' W 122°19'4 3.7
2016-Dec-07 21:32N 47°35' W 122°22'0 0.1
2016-Dec-07 20:31N 47°35' W 122°22'0 0.0
2016-Dec-07 19:31N 47°35' W 122°22'0 0.1
2016-Dec-07 18:34N 47°35' W 122°22'3 2.7
2016-Dec-07 17:33N 47°33' W 122°20'1 0.7
2016-Dec-07 16:33N 47°32' W 122°20'0 0.0
2016-Dec-06 23:06N 47°32' W 122°20'4 6.8
2016-Dec-06 22:33N 47°36' W 122°22'10 9.8
2016-Dec-06 21:33N 47°45' W 122°28'1010.4
2016-Dec-06 20:33N 47°55' W 122°31'15 7.6
2016-Dec-06 18:33N 47°43' W 122°46'5 4.8
2016-Dec-06 17:27N 47°39' W 122°50'4 4.6
2016-Dec-06 16:33N 47°43' W 122°49'1 1.0
2016-Dec-06 15:33N 47°42' W 122°50'3 3.0
2016-Dec-06 14:33N 47°42' W 122°46'2 1.7
2016-Dec-06 13:33N 47°44' W 122°46'3 2.7
2016-Dec-06 12:25N 47°46' W 122°44'3 2.4
2016-Dec-06 11:22N 47°49' W 122°42'2 2.4
2016-Dec-06 10:25N 47°50' W 122°39'2 2.2
2016-Dec-06 09:33N 47°52' W 122°37'3 3.2
2016-Dec-06 08:29N 47°55' W 122°37'3 3.1
2016-Dec-06 07:33N 47°56' W 122°33'6 6.2
2016-Dec-06 06:33N 47°51' W 122°27'6 5.7
2016-Dec-06 05:33N 47°46' W 122°26'5 5.5
2016-Dec-06 04:33N 47°40' W 122°27'5 4.9
2016-Dec-06 03:33N 47°36' W 122°22'3 2.7
2016-Dec-06 02:34N 47°34' W 122°21'2 1.6
2016-Dec-06 01:32N 47°32' W 122°20'0 0.2
2016-Dec-06 00:34N 47°32' W 122°19'5 4.7
2016-Dec-05 23:34N 47°35' W 122°25'9 9.2
2016-Dec-05 22:33N 47°27' W 122°31'1010.0
2016-Dec-05 21:33N 47°17' W 122°33'10 9.5
2016-Dec-05 20:33N 47°08' W 122°39'0 0.1
2016-Dec-05 19:20N 47°08' W 122°39'1 0.7
2016-Dec-05 18:33N 47°09' W 122°38'0 0.0
2016-Dec-05 17:12N 47°09' W 122°38'2 3.6
2016-Dec-05 16:33N 47°11' W 122°38'1010.4
2016-Dec-05 15:33N 47°21' W 122°33'9 9.3
2016-Dec-05 14:33N 47°30' W 122°29'7 7.1
2016-Dec-05 13:34N 47°34' W 122°21'0 0.0
2016-Dec-04 11:05N 47°34' W 122°21'3 6.3
2016-Dec-04 10:33N 47°34' W 122°26'16 0.7
2016-Dec-03 12:22N 47°19' W 122°34'6 6.3
2016-Dec-03 11:25N 47°25' W 122°32'5 5.9
2016-Dec-03 10:33N 47°30' W 122°30'6 5.8
2016-Dec-03 09:33N 47°35' W 122°33'6 5.1
2016-Dec-03 08:25N 47°32' W 122°40'0 0.0
2016-Dec-03 07:22N 47°32' W 122°40'0 0.0
2016-Dec-03 06:20N 47°32' W 122°40'0 0.1
2016-Dec-03 05:32N 47°32' W 122°40'1 1.3
2016-Dec-03 04:31N 47°33' W 122°38'0 0.0
2016-Dec-03 03:31N 47°33' W 122°38'0 0.0
2016-Dec-03 02:31N 47°33' W 122°38'1 1.4
2016-Dec-03 01:33N 47°32' W 122°40'0 0.0
2016-Dec-03 00:32N 47°32' W 122°40'1 1.2
2016-Dec-02 23:33N 47°33' W 122°38'1 1.2
2016-Dec-02 22:33N 47°32' W 122°40'6 5.7
2016-Dec-02 21:33N 47°35' W 122°32'7 6.9
2016-Dec-02 20:33N 47°36' W 122°22'4 3.6
2016-Dec-02 19:31N 47°32' W 122°20'0 0.3
2016-Dec-02 18:33N 47°32' W 122°19'0 0.2
2016-Dec-02 17:31N 47°32' W 122°20'0 0.2
2016-Dec-02 16:31N 47°32' W 122°19'0 0.2
2016-Dec-02 15:33N 47°32' W 122°20'0 0.0
2016-Dec-02 14:33N 47°32' W 122°20'0 0.0
2016-Dec-02 13:33N 47°32' W 122°20'0 0.0
2016-Dec-02 12:33N 47°32' W 122°20'0 0.0
2016-Dec-02 11:32N 47°32' W 122°20'0 0.0
2016-Dec-02 10:33N 47°32' W 122°20'0 0.0
2016-Dec-02 09:30N 47°32' W 122°20'0 0.0
2016-Dec-02 08:32N 47°32' W 122°20'0 0.0
2016-Dec-02 07:32N 47°32' W 122°20'0 0.0
2016-Dec-02 06:33N 47°32' W 122°20'0 0.0
2016-Dec-02 05:30N 47°32' W 122°20'0 0.0
2016-Dec-02 04:32N 47°32' W 122°20'0 0.0
2016-Dec-02 03:32N 47°32' W 122°20'2 2.1
2016-Dec-02 02:33N 47°34' W 122°21'9 9.1
2016-Dec-02 01:33N 47°43' W 122°26'1010.4
2016-Dec-02 00:33N 47°53' W 122°23'1010.1
2016-Dec-01 23:33N 48°03' W 122°23'14 9.6
2016-Dec-01 22:07N 48°15' W 122°33'5 8.2
2016-Dec-01 21:27N 48°21' W 122°32'6 6.6
2016-Dec-01 20:32N 48°26' W 122°30'6 5.8
2016-Dec-01 19:32N 48°31' W 122°36'1 0.6
2016-Dec-01 18:32N 48°31' W 122°35'0 0.0
2016-Dec-01 17:20N 48°31' W 122°35'0 0.1
2016-Dec-01 16:32N 48°31' W 122°35'0 0.3
2016-Dec-01 15:31N 48°31' W 122°36'3 2.7
2016-Dec-01 14:33N 48°31' W 122°40'3 3.3
2016-Dec-01 13:33N 48°28' W 122°41'9 4.2
2016-Dec-01 11:25N 48°21' W 122°33'11 5.3
2016-Dec-01 09:19N 48°10' W 122°32'5 5.5
2016-Dec-01 08:28N 48°06' W 122°28'6 5.8
2016-Dec-01 07:27N 48°02' W 122°22'5 5.5
2016-Dec-01 06:33N 47°57' W 122°20'5 4.7
2016-Dec-01 05:33N 47°53' W 122°22'6 6.4
2016-Dec-01 04:33N 47°46' W 122°25'7 6.7
2016-Dec-01 03:33N 47°40' W 122°27'6 6.4
2016-Dec-01 02:33N 47°35' W 122°22'3 2.7
2016-Dec-01 01:32N 47°32' W 122°19'0 0.2
2016-Dec-01 00:32N 47°32' W 122°20'0 0.0
2016-Nov-30 23:32N 47°32' W 122°20'0 0.0
2016-Nov-30 22:32N 47°32' W 122°20'0 0.0
2016-Nov-30 21:32N 47°32' W 122°20'0 0.0
2016-Nov-30 20:32N 47°32' W 122°20'0 0.1
2016-Nov-30 19:32N 47°32' W 122°20'1 0.5
2016-Nov-30 18:32N 47°32' W 122°19'0 0.4
2016-Nov-30 17:32N 47°32' W 122°20'0 0.0
2016-Nov-30 16:32N 47°32' W 122°20'0 0.0
2016-Nov-30 15:32N 47°32' W 122°20'0 0.0
2016-Nov-30 14:32N 47°32' W 122°20'0 0.0
2016-Nov-30 13:31N 47°32' W 122°20'0 0.0
2016-Nov-30 12:31N 47°32' W 122°20'0 0.3
2016-Nov-30 11:33N 47°32' W 122°19'0 0.3
2016-Nov-30 10:32N 47°32' W 122°20'0 0.0
2016-Nov-30 09:32N 47°32' W 122°20'0 0.0
2016-Nov-30 08:32N 47°32' W 122°20'0 0.0
2016-Nov-30 07:32N 47°32' W 122°20'0 0.0
2016-Nov-30 06:32N 47°32' W 122°20'0 0.0
2016-Nov-30 05:32N 47°32' W 122°20'0 0.0
2016-Nov-30 04:32N 47°32' W 122°20'0 0.0
2016-Nov-30 03:32N 47°32' W 122°20'0 0.0
2016-Nov-30 02:31N 47°32' W 122°20'0 0.3
2016-Nov-30 01:31N 47°32' W 122°19'0 0.3
2016-Nov-30 00:33N 47°32' W 122°20'  
Track history (hours):
 
Tides and Currents Weather Stations Pressure Air Temp Water Temp Dewpoint Dewpoint Depression Visibility Wind Speed Wind Dir Waves Ship Positions

Diane H

Owner: BOYER TOWING INC, KETCHIKAN, AK. More information available from US FCC via Universal Licensing System and Coast Guard Vessel Documentation Center.

Last reported at 2016-Dec-10 00:19 UTC. Time now 2016-Dec-10 01:17 UTC.
Position N 47°39' W 122°17'.

Type: Towing. MMSI: 366673090.

Date/timePositionNaut miles runAvg speedWind from/ knotsBaromVisibWave heightAir tempDewpointWater temp
2016-Dec-10 00:19N 47°39' W 122°17'0 0.0
2016-Dec-09 23:31N 47°39' W 122°17'0 0.0
2016-Dec-09 22:16N 47°39' W 122°17'0 0.0
2016-Dec-09 20:31N 47°39' W 122°17'0 0.0
2016-Dec-09 18:28N 47°39' W 122°17'0 0.3
2016-Dec-09 17:33N 47°39' W 122°17'5 4.7
2016-Dec-09 16:32N 47°40' W 122°24'6 5.9
2016-Dec-09 15:33N 47°34' W 122°21'2 0.1
2016-Dec-08 00:33N 47°32' W 122°20'0 0.3
2016-Dec-07 23:32N 47°32' W 122°19'0 0.0
2016-Dec-07 22:32N 47°32' W 122°19'4 3.7
2016-Dec-07 21:32N 47°35' W 122°22'0 0.1
2016-Dec-07 20:31N 47°35' W 122°22'0 0.0
2016-Dec-07 19:31N 47°35' W 122°22'0 0.1
2016-Dec-07 18:34N 47°35' W 122°22'3 2.7
2016-Dec-07 17:33N 47°33' W 122°20'1 0.7
2016-Dec-07 16:33N 47°32' W 122°20'0 0.0
2016-Dec-06 23:06N 47°32' W 122°20'4 6.8
2016-Dec-06 22:33N 47°36' W 122°22'10 9.8
2016-Dec-06 21:33N 47°45' W 122°28'1010.4
2016-Dec-06 20:33N 47°55' W 122°31'15 7.6
2016-Dec-06 18:33N 47°43' W 122°46'5 4.8
2016-Dec-06 17:27N 47°39' W 122°50'4 4.6
2016-Dec-06 16:33N 47°43' W 122°49'1 1.0
2016-Dec-06 15:33N 47°42' W 122°50'3 3.0
2016-Dec-06 14:33N 47°42' W 122°46'2 1.7
2016-Dec-06 13:33N 47°44' W 122°46'3 2.7
2016-Dec-06 12:25N 47°46' W 122°44'3 2.4
2016-Dec-06 11:22N 47°49' W 122°42'2 2.4
2016-Dec-06 10:25N 47°50' W 122°39'2 2.2
2016-Dec-06 09:33N 47°52' W 122°37'3 3.2
2016-Dec-06 08:29N 47°55' W 122°37'3 3.1
2016-Dec-06 07:33N 47°56' W 122°33'6 6.2
2016-Dec-06 06:33N 47°51' W 122°27'6 5.7
2016-Dec-06 05:33N 47°46' W 122°26'5 5.5
2016-Dec-06 04:33N 47°40' W 122°27'5 4.9
2016-Dec-06 03:33N 47°36' W 122°22'3 2.7
2016-Dec-06 02:34N 47°34' W 122°21'2 1.6
2016-Dec-06 01:32N 47°32' W 122°20'0 0.2
2016-Dec-06 00:34N 47°32' W 122°19'5 4.7
2016-Dec-05 23:34N 47°35' W 122°25'9 9.2
2016-Dec-05 22:33N 47°27' W 122°31'1010.0
2016-Dec-05 21:33N 47°17' W 122°33'10 9.5
2016-Dec-05 20:33N 47°08' W 122°39'0 0.1
2016-Dec-05 19:20N 47°08' W 122°39'1 0.7
2016-Dec-05 18:33N 47°09' W 122°38'0 0.0
2016-Dec-05 17:12N 47°09' W 122°38'2 3.6
2016-Dec-05 16:33N 47°11' W 122°38'1010.4
2016-Dec-05 15:33N 47°21' W 122°33'9 9.3
2016-Dec-05 14:33N 47°30' W 122°29'7 7.1
2016-Dec-05 13:34N 47°34' W 122°21'0 0.0
2016-Dec-04 11:05N 47°34' W 122°21'3 6.3
2016-Dec-04 10:33N 47°34' W 122°26'16 0.7
2016-Dec-03 12:22N 47°19' W 122°34'6 6.3
2016-Dec-03 11:25N 47°25' W 122°32'5 5.9
2016-Dec-03 10:33N 47°30' W 122°30'6 5.8
2016-Dec-03 09:33N 47°35' W 122°33'6 5.1
2016-Dec-03 08:25N 47°32' W 122°40'0 0.0
2016-Dec-03 07:22N 47°32' W 122°40'0 0.0
2016-Dec-03 06:20N 47°32' W 122°40'0 0.1
2016-Dec-03 05:32N 47°32' W 122°40'1 1.3
2016-Dec-03 04:31N 47°33' W 122°38'0 0.0
2016-Dec-03 03:31N 47°33' W 122°38'0 0.0
2016-Dec-03 02:31N 47°33' W 122°38'1 1.4
2016-Dec-03 01:33N 47°32' W 122°40'0 0.0
2016-Dec-03 00:32N 47°32' W 122°40'1 1.2
2016-Dec-02 23:33N 47°33' W 122°38'1 1.2
2016-Dec-02 22:33N 47°32' W 122°40'6 5.7
2016-Dec-02 21:33N 47°35' W 122°32'7 6.9
2016-Dec-02 20:33N 47°36' W 122°22'4 3.6
2016-Dec-02 19:31N 47°32' W 122°20'0 0.3
2016-Dec-02 18:33N 47°32' W 122°19'0 0.2
2016-Dec-02 17:31N 47°32' W 122°20'0 0.2
2016-Dec-02 16:31N 47°32' W 122°19'0 0.2
2016-Dec-02 15:33N 47°32' W 122°20'0 0.0
2016-Dec-02 14:33N 47°32' W 122°20'0 0.0
2016-Dec-02 13:33N 47°32' W 122°20'0 0.0
2016-Dec-02 12:33N 47°32' W 122°20'0 0.0
2016-Dec-02 11:32N 47°32' W 122°20'0 0.0
2016-Dec-02 10:33N 47°32' W 122°20'0 0.0
2016-Dec-02 09:30N 47°32' W 122°20'0 0.0
2016-Dec-02 08:32N 47°32' W 122°20'0 0.0
2016-Dec-02 07:32N 47°32' W 122°20'0 0.0
2016-Dec-02 06:33N 47°32' W 122°20'0 0.0
2016-Dec-02 05:30N 47°32' W 122°20'0 0.0
2016-Dec-02 04:32N 47°32' W 122°20'0 0.0
2016-Dec-02 03:32N 47°32' W 122°20'2 2.1
2016-Dec-02 02:33N 47°34' W 122°21'9 9.1
2016-Dec-02 01:33N 47°43' W 122°26'1010.4
2016-Dec-02 00:33N 47°53' W 122°23'1010.1
2016-Dec-01 23:33N 48°03' W 122°23'14 9.6
2016-Dec-01 22:07N 48°15' W 122°33'5 8.2
2016-Dec-01 21:27N 48°21' W 122°32'6 6.6
2016-Dec-01 20:32N 48°26' W 122°30'6 5.8
2016-Dec-01 19:32N 48°31' W 122°36'1 0.6
2016-Dec-01 18:32N 48°31' W 122°35'0 0.0
2016-Dec-01 17:20N 48°31' W 122°35'0 0.1
2016-Dec-01 16:32N 48°31' W 122°35'0 0.3
2016-Dec-01 15:31N 48°31' W 122°36'3 2.7
2016-Dec-01 14:33N 48°31' W 122°40'3 3.3
2016-Dec-01 13:33N 48°28' W 122°41'9 4.2
2016-Dec-01 11:25N 48°21' W 122°33'11 5.3
2016-Dec-01 09:19N 48°10' W 122°32'5 5.5
2016-Dec-01 08:28N 48°06' W 122°28'6 5.8
2016-Dec-01 07:27N 48°02' W 122°22'5 5.5
2016-Dec-01 06:33N 47°57' W 122°20'5 4.7
2016-Dec-01 05:33N 47°53' W 122°22'6 6.4
2016-Dec-01 04:33N 47°46' W 122°25'7 6.7
2016-Dec-01 03:33N 47°40' W 122°27'6 6.4
2016-Dec-01 02:33N 47°35' W 122°22'3 2.7
2016-Dec-01 01:32N 47°32' W 122°19'0 0.2
2016-Dec-01 00:32N 47°32' W 122°20'0 0.0
2016-Nov-30 23:32N 47°32' W 122°20'0 0.0
2016-Nov-30 22:32N 47°32' W 122°20'0 0.0
2016-Nov-30 21:32N 47°32' W 122°20'0 0.0
2016-Nov-30 20:32N 47°32' W 122°20'0 0.1
2016-Nov-30 19:32N 47°32' W 122°20'1 0.5
2016-Nov-30 18:32N 47°32' W 122°19'0 0.4
2016-Nov-30 17:32N 47°32' W 122°20'0 0.0
2016-Nov-30 16:32N 47°32' W 122°20'0 0.0
2016-Nov-30 15:32N 47°32' W 122°20'0 0.0
2016-Nov-30 14:32N 47°32' W 122°20'0 0.0
2016-Nov-30 13:31N 47°32' W 122°20'0 0.0
2016-Nov-30 12:31N 47°32' W 122°20'0 0.3
2016-Nov-30 11:33N 47°32' W 122°19'0 0.3
2016-Nov-30 10:32N 47°32' W 122°20'0 0.0
2016-Nov-30 09:32N 47°32' W 122°20'0 0.0
2016-Nov-30 08:32N 47°32' W 122°20'0 0.0
2016-Nov-30 07:32N 47°32' W 122°20'0 0.0
2016-Nov-30 06:32N 47°32' W 122°20'0 0.0
2016-Nov-30 05:32N 47°32' W 122°20'0 0.0
2016-Nov-30 04:32N 47°32' W 122°20'0 0.0
2016-Nov-30 03:32N 47°32' W 122°20'0 0.0
2016-Nov-30 02:31N 47°32' W 122°20'0 0.3
2016-Nov-30 01:31N 47°32' W 122°19'0 0.3
2016-Nov-30 00:33N 47°32' W 122°20'  

Dump ship's entire track history